sensor_id;sensor_type;location;lat;lon;timestamp;P1;durP1;ratioP1;P2;durP2;ratioP2
78057;SDS011;67265;52.514;13.292;2024-01-15T00:17:35;9.88;;;5.18;;
78057;SDS011;67265;52.514;13.292;2024-01-15T00:20:02;12.48;;;6.60;;
78057;SDS011;67265;52.514;13.292;2024-01-15T00:22:30;11.80;;;5.28;;
78057;SDS011;67265;52.514;13.292;2024-01-15T00:24:58;10.38;;;5.07;;
78057;SDS011;67265;52.514;13.292;2024-01-15T00:27:25;9.00;;;3.95;;
78057;SDS011;67265;52.514;13.292;2024-01-15T00:29:51;9.25;;;4.97;;
78057;SDS011;67265;52.514;13.292;2024-01-15T00:32:21;11.52;;;5.30;;
78057;SDS011;67265;52.514;13.292;2024-01-15T00:34:47;10.00;;;5.18;;
78057;SDS011;67265;52.514;13.292;2024-01-15T00:37:14;10.45;;;5.10;;
78057;SDS011;67265;52.514;13.292;2024-01-15T00:39:41;11.82;;;5.00;;
78057;SDS011;67265;52.514;13.292;2024-01-15T00:42:08;11.55;;;5.40;;
78057;SDS011;67265;52.514;13.292;2024-01-15T00:44:35;10.95;;;5.30;;
78057;SDS011;67265;52.514;13.292;2024-01-15T00:47:01;12.77;;;5.88;;
78057;SDS011;67265;52.514;13.292;2024-01-15T00:49:28;13.45;;;5.20;;
78057;SDS011;67265;52.514;13.292;2024-01-15T00:57:01;11.05;;;4.65;;
78057;SDS011;67265;52.514;13.292;2024-01-15T00:59:29;12.82;;;5.43;;
78057;SDS011;67265;52.514;13.292;2024-01-15T01:01:56;13.02;;;4.28;;
78057;SDS011;67265;52.514;13.292;2024-01-15T01:04:23;11.85;;;4.72;;
78057;SDS011;67265;52.514;13.292;2024-01-15T01:06:50;8.98;;;4.50;;
78057;SDS011;67265;52.514;13.292;2024-01-15T01:12:27;13.90;;;5.95;;
78057;SDS011;67265;52.514;13.292;2024-01-15T01:14:54;11.60;;;4.93;;
78057;SDS011;67265;52.514;13.292;2024-01-15T01:19:45;11.45;;;5.47;;
78057;SDS011;67265;52.514;13.292;2024-01-15T01:38:14;12.45;;;5.38;;
78057;SDS011;67265;52.514;13.292;2024-01-15T01:40:41;10.00;;;4.88;;
78057;SDS011;67265;52.514;13.292;2024-01-15T01:43:09;12.35;;;5.63;;
78057;SDS011;67265;52.514;13.292;2024-01-15T05:41:05;6.40;;;0.97;;
78057;SDS011;67265;52.514;13.292;2024-01-15T05:46:00;2.67;;;0.98;;
78057;SDS011;67265;52.514;13.292;2024-01-15T05:48:27;5.75;;;1.35;;
78057;SDS011;67265;52.514;13.292;2024-01-15T05:50:53;4.20;;;0.77;;
78057;SDS011;67265;52.514;13.292;2024-01-15T05:53:20;1.95;;;0.85;;
78057;SDS011;67265;52.514;13.292;2024-01-15T05:55:47;0.73;;;0.68;;
78057;SDS011;67265;52.514;13.292;2024-01-15T05:58:13;2.35;;;1.27;;
78057;SDS011;67265;52.514;13.292;2024-01-15T06:00:39;2.13;;;0.90;;
78057;SDS011;67265;52.514;13.292;2024-01-15T06:03:06;1.67;;;1.17;;
78057;SDS011;67265;52.514;13.292;2024-01-15T06:05:33;7.80;;;1.77;;
78057;SDS011;67265;52.514;13.292;2024-01-15T06:07:59;3.90;;;1.17;;
78057;SDS011;67265;52.514;13.292;2024-01-15T06:10:26;3.33;;;1.30;;
78057;SDS011;67265;52.514;13.292;2024-01-15T06:12:52;3.42;;;0.93;;
78057;SDS011;67265;52.514;13.292;2024-01-15T06:15:19;6.18;;;1.33;;
78057;SDS011;67265;52.514;13.292;2024-01-15T06:17:46;3.22;;;0.40;;
78057;SDS011;67265;52.514;13.292;2024-01-15T06:20:13;4.45;;;1.02;;
78057;SDS011;67265;52.514;13.292;2024-01-15T06:22:39;5.47;;;1.55;;
78057;SDS011;67265;52.514;13.292;2024-01-15T06:25:07;2.50;;;0.80;;
78057;SDS011;67265;52.514;13.292;2024-01-15T06:27:34;5.43;;;1.00;;
78057;SDS011;67265;52.514;13.292;2024-01-15T06:30:01;2.75;;;1.05;;
78057;SDS011;67265;52.514;13.292;2024-01-15T06:32:28;5.50;;;1.25;;
78057;SDS011;67265;52.514;13.292;2024-01-15T06:40:14;5.35;;;0.63;;
78057;SDS011;67265;52.514;13.292;2024-01-15T06:47:48;2.22;;;1.27;;
78057;SDS011;67265;52.514;13.292;2024-01-15T06:55:43;2.92;;;0.80;;
78057;SDS011;67265;52.514;13.292;2024-01-15T06:58:09;3.25;;;1.73;;
78057;SDS011;67265;52.514;13.292;2024-01-15T07:00:39;5.30;;;1.67;;
78057;SDS011;67265;52.514;13.292;2024-01-15T07:03:06;4.55;;;1.10;;
78057;SDS011;67265;52.514;13.292;2024-01-15T07:05:33;3.50;;;0.45;;
78057;SDS011;67265;52.514;13.292;2024-01-15T07:08:00;7.07;;;0.77;;
78057;SDS011;67265;52.514;13.292;2024-01-15T07:10:26;5.85;;;1.10;;
78057;SDS011;67265;52.514;13.292;2024-01-15T07:15:21;5.47;;;1.02;;
78057;SDS011;67265;52.514;13.292;2024-01-15T07:23:11;5.32;;;0.90;;
78057;SDS011;67265;52.514;13.292;2024-01-15T07:25:38;3.97;;;1.02;;
78057;SDS011;67265;52.514;13.292;2024-01-15T07:30:42;2.22;;;1.13;;
78057;SDS011;67265;52.514;13.292;2024-01-15T07:39:18;3.58;;;1.10;;
78057;SDS011;67265;52.514;13.292;2024-01-15T07:41:45;2.13;;;0.75;;
78057;SDS011;67265;52.514;13.292;2024-01-15T07:44:11;9.88;;;1.75;;
78057;SDS011;67265;52.514;13.292;2024-01-15T07:46:43;3.13;;;1.30;;
78057;SDS011;67265;52.514;13.292;2024-01-15T07:52:01;4.00;;;1.08;;
78057;SDS011;67265;52.514;13.292;2024-01-15T07:54:28;4.47;;;0.75;;
78057;SDS011;67265;52.514;13.292;2024-01-15T07:57:01;3.20;;;0.80;;
78057;SDS011;67265;52.514;13.292;2024-01-15T08:02:10;4.00;;;0.70;;
78057;SDS011;67265;52.514;13.292;2024-01-15T08:04:37;4.50;;;1.60;;
78057;SDS011;67265;52.514;13.292;2024-01-15T08:07:04;6.30;;;0.90;;
78057;SDS011;67265;52.514;13.292;2024-01-15T08:09:33;2.85;;;0.70;;
78057;SDS011;67265;52.514;13.292;2024-01-15T08:12:00;3.92;;;2.58;;
78057;SDS011;67265;52.514;13.292;2024-01-15T08:14:27;1.27;;;0.55;;
78057;SDS011;67265;52.514;13.292;2024-01-15T08:16:53;3.33;;;0.43;;
78057;SDS011;67265;52.514;13.292;2024-01-15T08:24:26;3.55;;;0.68;;
78057;SDS011;67265;52.514;13.292;2024-01-15T08:30:08;3.03;;;0.82;;
78057;SDS011;67265;52.514;13.292;2024-01-15T08:32:35;7.18;;;0.70;;
78057;SDS011;67265;52.514;13.292;2024-01-15T08:35:08;4.00;;;0.40;;
78057;SDS011;67265;52.514;13.292;2024-01-15T08:37:35;3.60;;;0.85;;
78057;SDS011;67265;52.514;13.292;2024-01-15T08:40:02;2.65;;;0.43;;
78057;SDS011;67265;52.514;13.292;2024-01-15T09:12:19;6.47;;;0.70;;
78057;SDS011;67265;52.514;13.292;2024-01-15T10:27:37;2.28;;;0.82;;
78057;SDS011;67265;52.514;13.292;2024-01-15T10:30:04;2.05;;;1.05;;
78057;SDS011;67265;52.514;13.292;2024-01-15T10:35:03;3.58;;;0.60;;
78057;SDS011;67265;52.514;13.292;2024-01-15T10:37:33;1.70;;;0.68;;
78057;SDS011;67265;52.514;13.292;2024-01-15T10:40:03;3.25;;;0.75;;
78057;SDS011;67265;52.514;13.292;2024-01-15T10:42:32;1.55;;;0.40;;
78057;SDS011;67265;52.514;13.292;2024-01-15T10:44:59;2.25;;;0.70;;
78057;SDS011;67265;52.514;13.292;2024-01-15T10:47:26;0.85;;;0.20;;
78057;SDS011;67265;52.514;13.292;2024-01-15T10:49:52;4.10;;;0.80;;
78057;SDS011;67265;52.514;13.292;2024-01-15T10:52:19;1.25;;;0.77;;
78057;SDS011;67265;52.514;13.292;2024-01-15T10:54:46;2.58;;;0.73;;
78057;SDS011;67265;52.514;13.292;2024-01-15T10:57:13;1.52;;;0.73;;
78057;SDS011;67265;52.514;13.292;2024-01-15T10:59:42;4.22;;;0.50;;
78057;SDS011;67265;52.514;13.292;2024-01-15T11:02:08;3.13;;;0.40;;
78057;SDS011;67265;52.514;13.292;2024-01-15T11:04:36;2.25;;;0.60;;
78057;SDS011;67265;52.514;13.292;2024-01-15T11:12:30;5.88;;;0.65;;
78057;SDS011;67265;52.514;13.292;2024-01-15T11:15:02;1.48;;;0.38;;
78057;SDS011;67265;52.514;13.292;2024-01-15T11:20:26;1.95;;;0.55;;
78057;SDS011;67265;52.514;13.292;2024-01-15T11:22:53;1.23;;;0.30;;
78057;SDS011;67265;52.514;13.292;2024-01-15T11:25:23;2.30;;;0.75;;
78057;SDS011;67265;52.514;13.292;2024-01-15T11:27:50;7.22;;;6.93;;
78057;SDS011;67265;52.514;13.292;2024-01-15T11:30:19;3.67;;;0.80;;
78057;SDS011;67265;52.514;13.292;2024-01-15T11:47:03;1.45;;;0.55;;
78057;SDS011;67265;52.514;13.292;2024-01-15T12:00:14;4.03;;;1.30;;
78057;SDS011;67265;52.514;13.292;2024-01-15T12:02:42;2.58;;;0.60;;
78057;SDS011;67265;52.514;13.292;2024-01-15T12:05:10;1.42;;;0.88;;
78057;SDS011;67265;52.514;13.292;2024-01-15T12:07:41;3.85;;;0.77;;
78057;SDS011;67265;52.514;13.292;2024-01-15T12:10:11;2.22;;;0.70;;
78057;SDS011;67265;52.514;13.292;2024-01-15T12:12:47;1.40;;;0.40;;
78057;SDS011;67265;52.514;13.292;2024-01-15T12:15:15;1.27;;;0.93;;
78057;SDS011;67265;52.514;13.292;2024-01-15T12:17:42;1.02;;;0.77;;
78057;SDS011;67265;52.514;13.292;2024-01-15T12:20:09;1.88;;;0.82;;
78057;SDS011;67265;52.514;13.292;2024-01-15T12:22:36;3.72;;;0.70;;
78057;SDS011;67265;52.514;13.292;2024-01-15T12:25:22;2.25;;;1.08;;
78057;SDS011;67265;52.514;13.292;2024-01-15T12:27:50;2.13;;;0.50;;
78057;SDS011;67265;52.514;13.292;2024-01-15T12:30:17;3.42;;;0.85;;
78057;SDS011;67265;52.514;13.292;2024-01-15T12:32:44;1.55;;;0.70;;
78057;SDS011;67265;52.514;13.292;2024-01-15T12:35:13;1.15;;;0.68;;
78057;SDS011;67265;52.514;13.292;2024-01-15T12:37:41;3.38;;;0.70;;
78057;SDS011;67265;52.514;13.292;2024-01-15T12:40:09;1.80;;;0.63;;
78057;SDS011;67265;52.514;13.292;2024-01-15T12:42:36;1.80;;;0.82;;
78057;SDS011;67265;52.514;13.292;2024-01-15T12:45:04;2.45;;;0.70;;
78057;SDS011;67265;52.514;13.292;2024-01-15T12:47:32;1.48;;;0.77;;
78057;SDS011;67265;52.514;13.292;2024-01-15T12:49:58;1.40;;;0.52;;
78057;SDS011;67265;52.514;13.292;2024-01-15T12:52:41;1.95;;;0.45;;
78057;SDS011;67265;52.514;13.292;2024-01-15T12:55:08;2.78;;;0.80;;
78057;SDS011;67265;52.514;13.292;2024-01-15T12:57:35;1.98;;;0.68;;
78057;SDS011;67265;52.514;13.292;2024-01-15T13:00:05;3.30;;;0.95;;
78057;SDS011;67265;52.514;13.292;2024-01-15T13:05:00;1.50;;;0.88;;
78057;SDS011;67265;52.514;13.292;2024-01-15T13:07:27;1.65;;;0.77;;
78057;SDS011;67265;52.514;13.292;2024-01-15T13:09:53;1.30;;;0.65;;
78057;SDS011;67265;52.514;13.292;2024-01-15T13:12:20;1.00;;;0.90;;
78057;SDS011;67265;52.514;13.292;2024-01-15T13:14:47;1.08;;;0.50;;
78057;SDS011;67265;52.514;13.292;2024-01-15T13:17:13;1.63;;;0.70;;
78057;SDS011;67265;52.514;13.292;2024-01-15T13:19:46;1.88;;;0.43;;
78057;SDS011;67265;52.514;13.292;2024-01-15T13:22:13;1.17;;;0.70;;
78057;SDS011;67265;52.514;13.292;2024-01-15T13:24:40;1.63;;;1.10;;
78057;SDS011;67265;52.514;13.292;2024-01-15T13:27:06;1.15;;;0.60;;
78057;SDS011;67265;52.514;13.292;2024-01-15T13:29:33;1.45;;;0.80;;
78057;SDS011;67265;52.514;13.292;2024-01-15T13:32:00;1.65;;;0.80;;
78057;SDS011;67265;52.514;13.292;2024-01-15T13:34:26;2.13;;;0.50;;
78057;SDS011;67265;52.514;13.292;2024-01-15T13:36:53;0.95;;;0.65;;
78057;SDS011;67265;52.514;13.292;2024-01-15T13:39:20;1.95;;;0.60;;
78057;SDS011;67265;52.514;13.292;2024-01-15T13:41:46;2.58;;;0.73;;
78057;SDS011;67265;52.514;13.292;2024-01-15T13:44:13;1.50;;;0.80;;
78057;SDS011;67265;52.514;13.292;2024-01-15T13:46:40;1.05;;;0.70;;
78057;SDS011;67265;52.514;13.292;2024-01-15T13:49:08;1.83;;;0.30;;
78057;SDS011;67265;52.514;13.292;2024-01-15T13:51:37;1.42;;;0.80;;
78057;SDS011;67265;52.514;13.292;2024-01-15T13:54:04;1.80;;;0.40;;
78057;SDS011;67265;52.514;13.292;2024-01-15T13:56:31;1.63;;;0.93;;
78057;SDS011;67265;52.514;13.292;2024-01-15T13:59:01;2.95;;;0.68;;
78057;SDS011;67265;52.514;13.292;2024-01-15T14:01:29;2.38;;;1.02;;
78057;SDS011;67265;52.514;13.292;2024-01-15T14:03:55;1.92;;;0.80;;
78057;SDS011;67265;52.514;13.292;2024-01-15T14:06:22;2.35;;;0.70;;
78057;SDS011;67265;52.514;13.292;2024-01-15T14:08:48;1.52;;;0.70;;
78057;SDS011;67265;52.514;13.292;2024-01-15T14:11:15;2.60;;;0.73;;
78057;SDS011;67265;52.514;13.292;2024-01-15T14:13:41;1.83;;;0.73;;
78057;SDS011;67265;52.514;13.292;2024-01-15T14:16:08;2.58;;;0.75;;
78057;SDS011;67265;52.514;13.292;2024-01-15T14:18:38;3.30;;;0.32;;
78057;SDS011;67265;52.514;13.292;2024-01-15T14:21:04;4.03;;;0.70;;
78057;SDS011;67265;52.514;13.292;2024-01-15T14:23:31;1.85;;;0.75;;
78057;SDS011;67265;52.514;13.292;2024-01-15T14:25:57;4.22;;;0.73;;
78057;SDS011;67265;52.514;13.292;2024-01-15T14:28:24;5.30;;;0.80;;
78057;SDS011;67265;52.514;13.292;2024-01-15T14:30:50;4.13;;;0.65;;
78057;SDS011;67265;52.514;13.292;2024-01-15T14:33:17;4.22;;;1.25;;
78057;SDS011;67265;52.514;13.292;2024-01-15T14:35:46;4.07;;;1.23;;
78057;SDS011;67265;52.514;13.292;2024-01-15T14:38:12;2.72;;;1.17;;
78057;SDS011;67265;52.514;13.292;2024-01-15T14:40:39;1.25;;;0.88;;
78057;SDS011;67265;52.514;13.292;2024-01-15T14:43:05;5.03;;;1.80;;
78057;SDS011;67265;52.514;13.292;2024-01-15T14:45:32;2.80;;;0.35;;
78057;SDS011;67265;52.514;13.292;2024-01-15T14:47:58;3.78;;;0.90;;
78057;SDS011;67265;52.514;13.292;2024-01-15T14:50:25;4.13;;;0.88;;
78057;SDS011;67265;52.514;13.292;2024-01-15T14:52:52;2.70;;;1.05;;
78057;SDS011;67265;52.514;13.292;2024-01-15T14:55:18;2.17;;;0.98;;
78057;SDS011;67265;52.514;13.292;2024-01-15T14:57:45;6.75;;;1.83;;
78057;SDS011;67265;52.514;13.292;2024-01-15T15:00:11;5.47;;;0.68;;
78057;SDS011;67265;52.514;13.292;2024-01-15T15:02:39;2.40;;;0.65;;
78057;SDS011;67265;52.514;13.292;2024-01-15T15:05:06;1.33;;;0.50;;
78057;SDS011;67265;52.514;13.292;2024-01-15T15:07:34;1.00;;;0.38;;
78057;SDS011;67265;52.514;13.292;2024-01-15T15:10:02;1.83;;;0.82;;
78057;SDS011;67265;52.514;13.292;2024-01-15T15:12:32;1.75;;;0.85;;
78057;SDS011;67265;52.514;13.292;2024-01-15T15:14:59;5.80;;;0.80;;
78057;SDS011;67265;52.514;13.292;2024-01-15T15:17:35;2.42;;;1.00;;
78057;SDS011;67265;52.514;13.292;2024-01-15T15:20:02;4.72;;;1.52;;
78057;SDS011;67265;52.514;13.292;2024-01-15T15:22:29;2.63;;;2.08;;
78057;SDS011;67265;52.514;13.292;2024-01-15T15:24:56;2.63;;;0.90;;
78057;SDS011;67265;52.514;13.292;2024-01-15T15:27:22;3.22;;;0.40;;
78057;SDS011;67265;52.514;13.292;2024-01-15T15:29:49;2.70;;;0.77;;
78057;SDS011;67265;52.514;13.292;2024-01-15T15:32:17;1.08;;;0.73;;
78057;SDS011;67265;52.514;13.292;2024-01-15T15:34:43;3.05;;;0.90;;
78057;SDS011;67265;52.514;13.292;2024-01-15T15:37:10;2.67;;;0.82;;
78057;SDS011;67265;52.514;13.292;2024-01-15T15:39:37;2.20;;;0.77;;
78057;SDS011;67265;52.514;13.292;2024-01-15T15:42:04;2.50;;;0.70;;
78057;SDS011;67265;52.514;13.292;2024-01-15T15:44:30;4.28;;;0.95;;
78057;SDS011;67265;52.514;13.292;2024-01-15T15:46:57;1.45;;;0.75;;
78057;SDS011;67265;52.514;13.292;2024-01-15T15:49:23;4.22;;;0.82;;
78057;SDS011;67265;52.514;13.292;2024-01-15T15:51:50;3.00;;;0.75;;
78057;SDS011;67265;52.514;13.292;2024-01-15T15:54:17;3.40;;;1.05;;
78057;SDS011;67265;52.514;13.292;2024-01-15T15:56:43;1.75;;;1.08;;
78057;SDS011;67265;52.514;13.292;2024-01-15T15:59:13;1.85;;;0.73;;
78057;SDS011;67265;52.514;13.292;2024-01-15T16:01:41;1.30;;;1.00;;
78057;SDS011;67265;52.514;13.292;2024-01-15T16:04:07;2.55;;;0.52;;
78057;SDS011;67265;52.514;13.292;2024-01-15T16:06:34;2.83;;;1.33;;
78057;SDS011;67265;52.514;13.292;2024-01-15T16:09:01;2.25;;;1.27;;
78057;SDS011;67265;52.514;13.292;2024-01-15T16:11:28;3.30;;;0.88;;
78057;SDS011;67265;52.514;13.292;2024-01-15T16:13:54;1.98;;;0.68;;
78057;SDS011;67265;52.514;13.292;2024-01-15T16:16:21;2.58;;;0.95;;
78057;SDS011;67265;52.514;13.292;2024-01-15T16:19:08;2.40;;;0.80;;
78057;SDS011;67265;52.514;13.292;2024-01-15T16:21:54;1.58;;;0.65;;
78057;SDS011;67265;52.514;13.292;2024-01-15T16:24:41;3.35;;;1.60;;
78057;SDS011;67265;52.514;13.292;2024-01-15T16:27:18;2.65;;;1.40;;
78057;SDS011;67265;52.514;13.292;2024-01-15T16:29:44;3.83;;;1.30;;
78057;SDS011;67265;52.514;13.292;2024-01-15T16:32:11;2.45;;;1.23;;
78057;SDS011;67265;52.514;13.292;2024-01-15T16:34:37;2.70;;;2.05;;
78057;SDS011;67265;52.514;13.292;2024-01-15T16:37:04;2.15;;;1.25;;
78057;SDS011;67265;52.514;13.292;2024-01-15T16:39:32;2.97;;;1.40;;
78057;SDS011;67265;52.514;13.292;2024-01-15T16:41:59;4.90;;;1.75;;
78057;SDS011;67265;52.514;13.292;2024-01-15T16:44:25;2.92;;;1.40;;
78057;SDS011;67265;52.514;13.292;2024-01-15T16:46:52;3.33;;;1.73;;
78057;SDS011;67265;52.514;13.292;2024-01-15T16:49:21;2.78;;;1.10;;
78057;SDS011;67265;52.514;13.292;2024-01-15T16:51:47;2.72;;;1.60;;
78057;SDS011;67265;52.514;13.292;2024-01-15T16:54:14;3.25;;;1.25;;
78057;SDS011;67265;52.514;13.292;2024-01-15T16:56:40;2.03;;;1.15;;
78057;SDS011;67265;52.514;13.292;2024-01-15T16:59:07;5.55;;;1.70;;
78057;SDS011;67265;52.514;13.292;2024-01-15T17:01:33;3.85;;;0.98;;
78057;SDS011;67265;52.514;13.292;2024-01-15T17:04:00;5.05;;;1.15;;
78057;SDS011;67265;52.514;13.292;2024-01-15T17:06:26;3.72;;;1.33;;
78057;SDS011;67265;52.514;13.292;2024-01-15T17:08:53;3.60;;;1.13;;
78057;SDS011;67265;52.514;13.292;2024-01-15T17:11:19;4.82;;;1.25;;
78057;SDS011;67265;52.514;13.292;2024-01-15T17:13:46;3.45;;;1.50;;
78057;SDS011;67265;52.514;13.292;2024-01-15T17:16:12;2.92;;;1.30;;
78057;SDS011;67265;52.514;13.292;2024-01-15T17:18:39;2.58;;;1.17;;
78057;SDS011;67265;52.514;13.292;2024-01-15T17:21:05;2.40;;;0.98;;
78057;SDS011;67265;52.514;13.292;2024-01-15T17:23:32;2.65;;;1.83;;
78057;SDS011;67265;52.514;13.292;2024-01-15T17:25:59;3.53;;;1.33;;
78057;SDS011;67265;52.514;13.292;2024-01-15T17:28:25;7.00;;;1.60;;
78057;SDS011;67265;52.514;13.292;2024-01-15T17:30:52;4.47;;;1.75;;
78057;SDS011;67265;52.514;13.292;2024-01-15T17:33:19;5.80;;;1.17;;
78057;SDS011;67265;52.514;13.292;2024-01-15T17:35:52;4.88;;;1.70;;
78057;SDS011;67265;52.514;13.292;2024-01-15T17:38:19;3.67;;;1.40;;
78057;SDS011;67265;52.514;13.292;2024-01-15T17:40:46;2.50;;;1.02;;
78057;SDS011;67265;52.514;13.292;2024-01-15T17:43:12;3.58;;;1.30;;
78057;SDS011;67265;52.514;13.292;2024-01-15T17:45:39;4.15;;;1.35;;
78057;SDS011;67265;52.514;13.292;2024-01-15T17:48:06;5.90;;;2.15;;
78057;SDS011;67265;52.514;13.292;2024-01-15T17:50:32;3.35;;;1.70;;
78057;SDS011;67265;52.514;13.292;2024-01-15T17:52:59;5.15;;;1.60;;
78057;SDS011;67265;52.514;13.292;2024-01-15T17:55:26;2.45;;;1.20;;
78057;SDS011;67265;52.514;13.292;2024-01-15T17:57:53;4.68;;;1.52;;
78057;SDS011;67265;52.514;13.292;2024-01-15T18:00:19;5.50;;;1.92;;
78057;SDS011;67265;52.514;13.292;2024-01-15T18:02:46;3.25;;;1.83;;
78057;SDS011;67265;52.514;13.292;2024-01-15T18:05:12;8.32;;;1.65;;
78057;SDS011;67265;52.514;13.292;2024-01-15T18:07:39;4.88;;;1.17;;
78057;SDS011;67265;52.514;13.292;2024-01-15T18:10:06;6.65;;;1.73;;
78057;SDS011;67265;52.514;13.292;2024-01-15T18:12:33;4.90;;;2.80;;
78057;SDS011;67265;52.514;13.292;2024-01-15T18:15:00;3.00;;;1.50;;
78057;SDS011;67265;52.514;13.292;2024-01-15T18:17:27;3.67;;;1.17;;
78057;SDS011;67265;52.514;13.292;2024-01-15T18:19:53;3.65;;;1.65;;
78057;SDS011;67265;52.514;13.292;2024-01-15T18:22:20;4.32;;;1.52;;
78057;SDS011;67265;52.514;13.292;2024-01-15T18:24:46;3.05;;;1.95;;
78057;SDS011;67265;52.514;13.292;2024-01-15T18:27:13;3.55;;;1.95;;
78057;SDS011;67265;52.514;13.292;2024-01-15T18:29:39;6.13;;;2.40;;
78057;SDS011;67265;52.514;13.292;2024-01-15T18:32:06;6.25;;;2.05;;
78057;SDS011;67265;52.514;13.292;2024-01-15T18:34:33;8.10;;;1.70;;
78057;SDS011;67265;52.514;13.292;2024-01-15T18:36:59;9.32;;;2.50;;
78057;SDS011;67265;52.514;13.292;2024-01-15T18:39:26;3.85;;;2.83;;
78057;SDS011;67265;52.514;13.292;2024-01-15T18:41:52;3.58;;;1.67;;
78057;SDS011;67265;52.514;13.292;2024-01-15T18:44:19;4.28;;;2.42;;
78057;SDS011;67265;52.514;13.292;2024-01-15T18:46:47;4.53;;;1.65;;
78057;SDS011;67265;52.514;13.292;2024-01-15T18:49:14;4.47;;;1.75;;
78057;SDS011;67265;52.514;13.292;2024-01-15T18:51:42;6.35;;;1.75;;
78057;SDS011;67265;52.514;13.292;2024-01-15T18:54:09;3.65;;;1.88;;
78057;SDS011;67265;52.514;13.292;2024-01-15T18:56:41;5.13;;;2.20;;
78057;SDS011;67265;52.514;13.292;2024-01-15T18:59:08;3.80;;;2.20;;
78057;SDS011;67265;52.514;13.292;2024-01-15T19:01:38;7.45;;;2.13;;
78057;SDS011;67265;52.514;13.292;2024-01-15T19:04:04;2.85;;;2.00;;
78057;SDS011;67265;52.514;13.292;2024-01-15T19:06:31;5.13;;;1.75;;
78057;SDS011;67265;52.514;13.292;2024-01-15T19:08:57;3.08;;;1.05;;
78057;SDS011;67265;52.514;13.292;2024-01-15T19:11:24;6.28;;;1.60;;
78057;SDS011;67265;52.514;13.292;2024-01-15T19:13:52;5.43;;;1.92;;
78057;SDS011;67265;52.514;13.292;2024-01-15T19:16:18;7.68;;;2.30;;
78057;SDS011;67265;52.514;13.292;2024-01-15T19:18:49;7.78;;;2.60;;
78057;SDS011;67265;52.514;13.292;2024-01-15T19:21:19;4.05;;;1.20;;
78057;SDS011;67265;52.514;13.292;2024-01-15T19:23:46;5.00;;;1.38;;
78057;SDS011;67265;52.514;13.292;2024-01-15T20:11:54;4.93;;;2.35;;
78057;SDS011;67265;52.514;13.292;2024-01-15T20:14:21;9.25;;;2.60;;
78057;SDS011;67265;52.514;13.292;2024-01-15T20:16:50;5.93;;;2.28;;
78057;SDS011;67265;52.514;13.292;2024-01-15T20:19:18;1.92;;;0.80;;
78057;SDS011;67265;52.514;13.292;2024-01-15T20:21:45;2.80;;;1.25;;
78057;SDS011;67265;52.514;13.292;2024-01-15T20:24:11;4.85;;;1.60;;
78057;SDS011;67265;52.514;13.292;2024-01-15T20:26:38;7.10;;;1.90;;
78057;SDS011;67265;52.514;13.292;2024-01-15T20:29:05;7.38;;;1.35;;
78057;SDS011;67265;52.514;13.292;2024-01-15T20:31:32;3.72;;;2.03;;
78057;SDS011;67265;52.514;13.292;2024-01-15T20:33:58;5.82;;;1.95;;
78057;SDS011;67265;52.514;13.292;2024-01-15T20:36:25;2.67;;;0.88;;
78057;SDS011;67265;52.514;13.292;2024-01-15T20:38:52;3.60;;;1.33;;
78057;SDS011;67265;52.514;13.292;2024-01-15T20:41:19;3.60;;;1.38;;
78057;SDS011;67265;52.514;13.292;2024-01-15T20:43:46;4.25;;;1.35;;
78057;SDS011;67265;52.514;13.292;2024-01-15T20:46:12;2.13;;;1.17;;
78057;SDS011;67265;52.514;13.292;2024-01-15T20:48:39;5.65;;;1.60;;
78057;SDS011;67265;52.514;13.292;2024-01-15T20:51:05;4.65;;;1.20;;
78057;SDS011;67265;52.514;13.292;2024-01-15T20:53:32;7.78;;;2.83;;
78057;SDS011;67265;52.514;13.292;2024-01-15T20:55:59;3.05;;;0.95;;
78057;SDS011;67265;52.514;13.292;2024-01-15T20:58:26;3.53;;;0.47;;
78057;SDS011;67265;52.514;13.292;2024-01-15T21:00:53;2.13;;;1.00;;
78057;SDS011;67265;52.514;13.292;2024-01-15T21:03:20;6.50;;;2.08;;
78057;SDS011;67265;52.514;13.292;2024-01-15T21:05:48;6.22;;;2.08;;
78057;SDS011;67265;52.514;13.292;2024-01-15T21:08:15;5.07;;;1.80;;
78057;SDS011;67265;52.514;13.292;2024-01-15T21:10:42;2.78;;;1.60;;
78057;SDS011;67265;52.514;13.292;2024-01-15T21:13:08;4.07;;;2.60;;
78057;SDS011;67265;52.514;13.292;2024-01-15T21:15:35;5.03;;;0.60;;
78057;SDS011;67265;52.514;13.292;2024-01-15T21:18:02;2.97;;;1.70;;
78057;SDS011;67265;52.514;13.292;2024-01-15T21:20:30;5.72;;;2.00;;
78057;SDS011;67265;52.514;13.292;2024-01-15T21:22:56;5.25;;;0.82;;
78057;SDS011;67265;52.514;13.292;2024-01-15T21:25:23;2.40;;;0.60;;
78057;SDS011;67265;52.514;13.292;2024-01-15T21:27:49;3.08;;;0.82;;
78057;SDS011;67265;52.514;13.292;2024-01-15T21:30:16;3.30;;;1.00;;
78057;SDS011;67265;52.514;13.292;2024-01-15T21:32:42;4.43;;;0.98;;
78057;SDS011;67265;52.514;13.292;2024-01-15T21:35:09;8.35;;;1.27;;
78057;SDS011;67265;52.514;13.292;2024-01-15T21:37:39;1.73;;;1.05;;
78057;SDS011;67265;52.514;13.292;2024-01-15T21:40:07;3.63;;;1.05;;
78057;SDS011;67265;52.514;13.292;2024-01-15T21:42:36;3.10;;;2.03;;
78057;SDS011;67265;52.514;13.292;2024-01-15T21:45:04;1.50;;;1.20;;
78057;SDS011;67265;52.514;13.292;2024-01-15T21:47:33;3.67;;;0.70;;
78057;SDS011;67265;52.514;13.292;2024-01-15T21:50:02;3.42;;;1.23;;
78057;SDS011;67265;52.514;13.292;2024-01-15T21:52:30;5.20;;;1.80;;
78057;SDS011;67265;52.514;13.292;2024-01-15T21:54:57;2.70;;;2.42;;
78057;SDS011;67265;52.514;13.292;2024-01-15T21:57:23;4.28;;;0.88;;
78057;SDS011;67265;52.514;13.292;2024-01-15T21:59:50;7.60;;;2.72;;
78057;SDS011;67265;52.514;13.292;2024-01-15T22:02:16;2.90;;;1.40;;
78057;SDS011;67265;52.514;13.292;2024-01-15T22:04:43;3.78;;;1.40;;
78057;SDS011;67265;52.514;13.292;2024-01-15T22:07:09;7.45;;;2.40;;
78057;SDS011;67265;52.514;13.292;2024-01-15T22:09:36;7.40;;;1.85;;
78057;SDS011;67265;52.514;13.292;2024-01-15T22:12:03;5.55;;;1.08;;
78057;SDS011;67265;52.514;13.292;2024-01-15T22:14:30;5.28;;;1.55;;
78057;SDS011;67265;52.514;13.292;2024-01-15T22:16:57;3.83;;;1.55;;
78057;SDS011;67265;52.514;13.292;2024-01-15T22:19:23;4.57;;;2.03;;
78057;SDS011;67265;52.514;13.292;2024-01-15T22:21:50;6.55;;;1.58;;
78057;SDS011;67265;52.514;13.292;2024-01-15T22:24:16;4.32;;;1.73;;
78057;SDS011;67265;52.514;13.292;2024-01-15T22:26:43;4.70;;;1.60;;
78057;SDS011;67265;52.514;13.292;2024-01-15T22:29:09;2.00;;;0.98;;
78057;SDS011;67265;52.514;13.292;2024-01-15T22:31:36;2.15;;;0.57;;
78057;SDS011;67265;52.514;13.292;2024-01-15T22:34:02;3.95;;;1.25;;
78057;SDS011;67265;52.514;13.292;2024-01-15T22:36:30;1.98;;;1.27;;
78057;SDS011;67265;52.514;13.292;2024-01-15T22:38:57;4.90;;;0.98;;
78057;SDS011;67265;52.514;13.292;2024-01-15T22:41:24;2.40;;;1.20;;
78057;SDS011;67265;52.514;13.292;2024-01-15T22:43:50;3.40;;;1.00;;
78057;SDS011;67265;52.514;13.292;2024-01-15T22:46:17;7.82;;;1.50;;
78057;SDS011;67265;52.514;13.292;2024-01-15T22:48:43;2.88;;;0.90;;
78057;SDS011;67265;52.514;13.292;2024-01-15T22:51:10;3.17;;;0.93;;
78057;SDS011;67265;52.514;13.292;2024-01-15T22:53:36;2.65;;;1.33;;
78057;SDS011;67265;52.514;13.292;2024-01-15T22:56:03;3.35;;;0.85;;
78057;SDS011;67265;52.514;13.292;2024-01-15T22:58:30;3.90;;;1.52;;
78057;SDS011;67265;52.514;13.292;2024-01-15T23:00:56;2.08;;;1.17;;
78057;SDS011;67265;52.514;13.292;2024-01-15T23:03:24;4.30;;;1.17;;
78057;SDS011;67265;52.514;13.292;2024-01-15T23:05:51;5.60;;;1.83;;
78057;SDS011;67265;52.514;13.292;2024-01-15T23:08:18;4.07;;;1.42;;